Time;durP1;ratioP1;P1;durP2;ratioP2;P2;SDS_P1;SDS_P2;PMS_P1;PMS_P2;Temp;Humidity;BMP_temperature;BMP_pressure;BME280_temperature;BME280_humidity;BME280_pressure;Samples;Min_cycle;Max_cycle;Signal;HPM_P1;HPM_P2
2023/07/31 00:02:01;;;;;;;4.50;2.05;;;14.80;99.90;;;;;;5013861;28;20442;-71
2023/07/31 00:04:26;;;;;;;8.85;2.67;;;14.80;99.90;;;;;;5014691;28;20032;-70
2023/07/31 00:06:52;;;;;;;6.40;2.05;;;14.60;99.90;;;;;;5017910;28;20026;-71
2023/07/31 00:09:17;;;;;;;6.80;2.38;;;14.50;99.90;;;;;;5017575;28;20044;-70
2023/07/31 00:11:43;;;;;;;7.25;2.58;;;14.40;99.90;;;;;;5018126;28;20362;-71
2023/07/31 00:14:08;;;;;;;7.65;2.42;;;14.40;99.90;;;;;;5017316;28;20050;-71
2023/07/31 00:16:34;;;;;;;7.90;2.42;;;14.30;99.90;;;;;;5017502;28;20109;-70
2023/07/31 00:19:00;;;;;;;6.03;2.65;;;14.30;99.90;;;;;;5017708;28;20512;-70
2023/07/31 00:21:25;;;;;;;4.32;2.22;;;14.40;99.90;;;;;;5017323;28;20105;-71
2023/07/31 00:23:51;;;;;;;11.05;2.80;;;14.40;99.90;;;;;;5017202;28;20030;-70
2023/07/31 00:26:17;;;;;;;7.43;2.78;;;14.40;99.90;;;;;;5017196;28;20026;-70
2023/07/31 00:28:42;;;;;;;5.95;2.67;;;14.40;99.90;;;;;;5017487;28;20030;-71
2023/07/31 00:31:08;;;;;;;11.80;2.70;;;14.50;99.90;;;;;;4999516;28;20069;-70
2023/07/31 00:33:35;;;;;;;4.40;2.50;;;14.50;99.90;;;;;;5017390;28;20110;-71
2023/07/31 00:36:01;;;;;;;4.65;2.30;;;14.50;99.90;;;;;;5017156;28;20022;-71
2023/07/31 00:38:26;;;;;;;6.70;2.50;;;14.40;99.90;;;;;;5017513;28;20357;-70
2023/07/31 00:40:52;;;;;;;8.63;2.58;;;14.40;99.90;;;;;;5017239;28;20018;-71
2023/07/31 00:43:18;;;;;;;10.30;2.80;;;14.40;99.90;;;;;;5016912;28;20025;-70
2023/07/31 00:45:44;;;;;;;7.47;3.05;;;14.50;99.90;;;;;;5016775;28;20482;-71
2023/07/31 00:48:10;;;;;;;7.93;2.80;;;14.50;99.90;;;;;;5016822;28;20037;-71
2023/07/31 00:50:36;;;;;;;9.02;2.92;;;14.60;99.90;;;;;;4999566;28;20339;-71
2023/07/31 00:53:01;;;;;;;7.00;2.78;;;14.60;99.90;;;;;;5016756;28;20018;-71
2023/07/31 00:55:27;;;;;;;8.40;2.50;;;14.50;99.90;;;;;;5016455;28;20319;-70
2023/07/31 00:57:55;;;;;;;8.27;2.35;;;14.40;99.90;;;;;;4999621;28;20034;-70
2023/07/31 01:00:21;;;;;;;7.32;2.70;;;14.30;99.90;;;;;;5016721;28;20022;-71
2023/07/31 01:02:48;;;;;;;5.82;2.88;;;14.20;99.90;;;;;;4999482;28;20028;-70
2023/07/31 01:05:14;;;;;;;4.97;2.47;;;14.10;99.90;;;;;;5016484;28;20480;-71
2023/07/31 01:07:56;;;;;;;12.52;3.63;;;14.00;99.90;;;;;;5016526;28;20030;-70
2023/07/31 01:10:26;;;;;;;7.55;2.70;;;13.90;99.90;;;;;;5017055;28;20022;-71
2023/07/31 01:12:56;;;;;;;7.27;2.50;;;13.90;99.90;;;;;;5016422;28;20081;-71
2023/07/31 01:15:21;;;;;;;12.65;2.72;;;13.80;99.90;;;;;;5015020;28;20085;-71
2023/07/31 01:17:47;;;;;;;7.15;2.78;;;13.80;99.90;;;;;;5016044;28;20411;-71
2023/07/31 01:20:22;;;;;;;6.38;2.70;;;13.70;99.90;;;;;;5016303;28;20454;-71
2023/07/31 01:23:45;;;;;;;4.78;2.45;;;13.70;99.90;;;;;;4999224;28;20022;-71
2023/07/31 01:26:22;;;;;;;8.75;2.70;;;13.60;99.90;;;;;;4921195;29;20540;-71
2023/07/31 01:29:01;;;;;;;6.00;2.80;;;13.60;99.90;;;;;;4936683;29;20055;-70
2023/07/31 01:31:29;;;;;;;7.72;2.50;;;13.50;99.90;;;;;;4987123;28;20339;-71
2023/07/31 01:34:00;;;;;;;5.68;3.00;;;13.60;99.90;;;;;;4998390;28;20484;-70
2023/07/31 01:36:26;;;;;;;7.28;3.17;;;13.40;99.90;;;;;;5016284;28;20045;-70
2023/07/31 01:38:51;;;;;;;4.85;2.63;;;13.40;99.90;;;;;;5015974;28;20033;-71
2023/07/31 01:41:20;;;;;;;6.45;2.95;;;13.40;99.90;;;;;;5016159;28;20065;-71
2023/07/31 01:43:46;;;;;;;5.43;2.70;;;13.30;99.90;;;;;;5015297;28;20338;-70
2023/07/31 01:46:12;;;;;;;5.30;2.80;;;13.20;99.90;;;;;;5015642;28;20553;-71
2023/07/31 01:48:37;;;;;;;5.65;2.67;;;13.10;99.90;;;;;;5015462;28;20061;-71
2023/07/31 01:51:03;;;;;;;6.07;3.08;;;13.20;99.90;;;;;;5015937;28;20034;-71
2023/07/31 01:53:31;;;;;;;8.95;2.88;;;13.10;99.90;;;;;;5015923;28;20018;-71
2023/07/31 01:55:56;;;;;;;5.03;2.60;;;13.00;99.90;;;;;;5015911;28;20034;-70
2023/07/31 01:58:22;;;;;;;7.72;3.03;;;13.00;99.90;;;;;;5015551;28;20109;-71
2023/07/31 02:00:48;;;;;;;10.73;3.00;;;12.90;99.90;;;;;;4998545;28;20092;-73
2023/07/31 02:03:13;;;;;;;4.68;2.83;;;12.90;99.90;;;;;;5015794;28;20084;-71
2023/07/31 02:05:46;;;;;;;6.70;2.90;;;12.90;99.90;;;;;;4998664;28;20327;-71
2023/07/31 02:08:12;;;;;;;9.20;3.88;;;12.80;99.90;;;;;;5015853;28;20065;-71
2023/07/31 02:10:38;;;;;;;10.93;3.33;;;12.80;99.90;;;;;;5015611;28;20112;-71
2023/07/31 02:13:03;;;;;;;10.60;3.30;;;12.80;99.90;;;;;;5015311;28;20044;-71
2023/07/31 02:15:30;;;;;;;8.23;2.72;;;12.80;99.90;;;;;;5015819;28;20026;-71
2023/07/31 02:17:56;;;;;;;12.98;3.70;;;12.80;99.90;;;;;;5015233;28;20104;-71
2023/07/31 02:20:21;;;;;;;9.40;3.35;;;12.90;99.90;;;;;;4997611;28;20097;-71
2023/07/31 02:22:47;;;;;;;7.05;3.30;;;12.80;99.90;;;;;;4997578;28;20021;-71
2023/07/31 02:25:13;;;;;;;5.78;2.90;;;12.90;99.90;;;;;;4997714;28;20397;-71
2023/07/31 02:27:38;;;;;;;8.20;2.90;;;12.90;99.90;;;;;;5014312;28;20022;-71
2023/07/31 02:30:04;;;;;;;4.60;2.72;;;12.90;99.90;;;;;;5014565;28;20021;-71
2023/07/31 02:32:30;;;;;;;6.93;3.20;;;12.90;99.90;;;;;;4997393;28;20022;-71
2023/07/31 02:34:56;;;;;;;6.97;3.20;;;12.90;99.90;;;;;;4997274;28;20512;-71
2023/07/31 02:37:21;;;;;;;5.25;2.88;;;12.90;99.90;;;;;;5014574;28;20025;-71
2023/07/31 02:39:47;;;;;;;8.68;3.17;;;12.80;99.90;;;;;;4997271;28;20017;-71
2023/07/31 02:42:13;;;;;;;7.40;2.90;;;12.80;99.90;;;;;;5014022;28;20350;-71
2023/07/31 02:44:39;;;;;;;10.20;3.10;;;12.80;99.90;;;;;;4996816;28;20033;-71
2023/07/31 02:47:04;;;;;;;8.30;3.08;;;12.80;99.90;;;;;;5015292;28;20061;-71
2023/07/31 02:49:37;;;;;;;9.05;2.90;;;12.80;99.90;;;;;;5071511;28;20391;-72
2023/07/31 02:52:03;;;;;;;4.82;2.70;;;12.90;99.90;;;;;;5071389;28;20032;-72
2023/07/31 02:54:28;;;;;;;4.63;2.70;;;13.00;99.90;;;;;;5070921;28;20437;-72
2023/07/31 02:56:54;;;;;;;5.97;3.03;;;12.90;99.90;;;;;;5070850;28;20096;-72
2023/07/31 02:59:20;;;;;;;8.93;2.63;;;12.90;99.90;;;;;;5071068;28;20039;-72
2023/07/31 03:01:46;;;;;;;8.95;2.85;;;12.80;99.90;;;;;;5071016;28;20096;-72
2023/07/31 03:04:11;;;;;;;6.97;2.88;;;12.70;99.90;;;;;;5071139;28;20051;-73
2023/07/31 03:06:37;;;;;;;5.00;2.47;;;12.70;99.90;;;;;;5070812;28;20016;-72
2023/07/31 03:09:02;;;;;;;7.13;3.20;;;12.70;99.90;;;;;;5070340;28;20029;-72
2023/07/31 03:11:28;;;;;;;6.95;3.10;;;12.80;99.90;;;;;;5070725;28;20029;-72
2023/07/31 03:13:54;;;;;;;5.07;3.03;;;12.80;99.90;;;;;;5070716;28;20021;-72
2023/07/31 03:16:19;;;;;;;9.02;3.45;;;12.80;99.90;;;;;;5069054;28;20104;-72
2023/07/31 03:18:45;;;;;;;7.28;2.97;;;12.70;99.90;;;;;;5070630;28;20032;-72
2023/07/31 03:21:10;;;;;;;7.22;2.83;;;12.70;99.90;;;;;;5070245;28;20082;-72
2023/07/31 03:23:36;;;;;;;6.85;3.35;;;12.70;99.90;;;;;;5070476;28;20091;-72
2023/07/31 03:26:05;;;;;;;5.70;2.67;;;12.60;99.90;;;;;;5069671;28;20043;-72
2023/07/31 03:28:31;;;;;;;6.53;2.85;;;12.60;99.90;;;;;;5069978;28;20024;-72
2023/07/31 03:30:56;;;;;;;6.50;3.22;;;12.60;99.90;;;;;;5070596;28;20460;-72
2023/07/31 03:33:22;;;;;;;9.90;3.50;;;12.50;99.90;;;;;;5068710;28;20020;-72
2023/07/31 03:35:48;;;;;;;8.63;3.40;;;12.50;99.90;;;;;;5070488;28;20027;-72
2023/07/31 03:38:13;;;;;;;7.43;3.20;;;12.40;99.90;;;;;;5070713;28;20396;-72
2023/07/31 03:40:39;;;;;;;8.70;3.00;;;12.40;99.90;;;;;;5069847;28;20035;-72
2023/07/31 03:43:05;;;;;;;5.68;2.78;;;12.50;99.90;;;;;;5069739;28;20032;-72
2023/07/31 03:45:31;;;;;;;7.20;3.13;;;12.50;99.90;;;;;;5070489;28;20024;-71
2023/07/31 03:47:57;;;;;;;6.70;3.53;;;12.60;99.90;;;;;;5069142;28;20082;-72
2023/07/31 03:50:22;;;;;;;5.72;3.30;;;12.60;99.90;;;;;;5069909;28;20434;-72
2023/07/31 03:52:48;;;;;;;10.18;3.30;;;12.60;99.90;;;;;;5069516;28;20017;-73
2023/07/31 03:55:14;;;;;;;7.13;3.45;;;12.60;99.90;;;;;;5069241;28;20023;-72
2023/07/31 03:57:39;;;;;;;10.00;3.60;;;12.60;99.90;;;;;;5069809;28;20361;-73
2023/07/31 04:00:05;;;;;;;7.90;3.33;;;12.60;99.90;;;;;;5061761;28;20017;-73
2023/07/31 04:02:31;;;;;;;6.57;3.53;;;12.60;99.90;;;;;;5056789;28;20090;-73
2023/07/31 04:04:57;;;;;;;6.43;3.20;;;12.60;99.90;;;;;;5056513;28;20400;-73
2023/07/31 04:07:22;;;;;;;11.05;3.25;;;12.40;99.90;;;;;;5056022;28;20023;-73
2023/07/31 04:09:48;;;;;;;8.68;3.42;;;12.30;99.90;;;;;;5056050;28;20017;-73
2023/07/31 04:12:13;;;;;;;8.60;3.10;;;12.30;99.90;;;;;;5054467;28;20079;-73
2023/07/31 04:14:39;;;;;;;10.68;3.55;;;12.20;99.90;;;;;;5056026;28;20063;-73
2023/07/31 04:17:05;;;;;;;10.70;3.22;;;12.30;99.90;;;;;;5056027;28;20471;-73
2023/07/31 04:19:30;;;;;;;5.72;3.17;;;12.30;99.90;;;;;;5056647;28;20040;-73
2023/07/31 04:21:56;;;;;;;6.15;3.38;;;12.30;99.90;;;;;;5056176;28;20028;-73
2023/07/31 04:24:24;;;;;;;9.40;3.47;;;12.40;99.90;;;;;;5056135;28;20021;-73
2023/07/31 04:26:51;;;;;;;7.30;2.88;;;12.40;99.90;;;;;;5056089;28;20021;-73
2023/07/31 04:29:17;;;;;;;4.82;3.00;;;12.50;99.90;;;;;;5055718;28;20021;-73
2023/07/31 04:31:42;;;;;;;7.30;3.30;;;12.60;99.90;;;;;;5055720;28;20028;-73
2023/07/31 04:34:08;;;;;;;6.63;3.05;;;12.80;99.90;;;;;;5055412;28;20432;-72
2023/07/31 04:36:34;;;;;;;11.10;3.08;;;12.80;99.90;;;;;;5055656;28;20064;-73
2023/07/31 04:39:00;;;;;;;7.55;3.13;;;12.90;99.90;;;;;;5055828;28;20114;-73
2023/07/31 04:41:25;;;;;;;10.27;2.97;;;12.90;99.90;;;;;;5055493;28;20071;-73
2023/07/31 04:43:51;;;;;;;10.50;2.60;;;13.10;99.90;;;;;;5055464;28;20021;-73
2023/07/31 04:46:17;;;;;;;4.97;2.70;;;13.10;99.90;;;;;;5055464;28;20117;-73
2023/07/31 04:48:43;;;;;;;6.30;2.83;;;13.10;99.90;;;;;;5055246;28;20136;-72
2023/07/31 04:51:11;;;;;;;10.75;3.30;;;13.30;99.90;;;;;;5055099;28;20029;-73
2023/07/31 04:53:37;;;;;;;8.30;3.03;;;13.30;99.90;;;;;;5055477;28;20036;-73
2023/07/31 04:56:03;;;;;;;6.55;3.00;;;13.30;99.90;;;;;;5055334;28;20021;-72
2023/07/31 04:58:29;;;;;;;5.15;2.97;;;13.30;99.90;;;;;;5055216;28;20483;-73
2023/07/31 05:00:54;;;;;;;4.93;2.85;;;13.30;99.90;;;;;;5055481;28;20056;-73
2023/07/31 05:03:20;;;;;;;6.43;2.88;;;13.40;99.90;;;;;;5055093;28;20025;-72
2023/07/31 05:05:46;;;;;;;7.60;2.92;;;13.50;99.90;;;;;;5055062;28;20063;-72
2023/07/31 05:08:11;;;;;;;7.50;2.95;;;13.50;99.90;;;;;;5055248;28;20425;-72
2023/07/31 05:10:37;;;;;;;7.88;3.25;;;13.60;99.90;;;;;;5054631;28;20028;-73
2023/07/31 05:13:03;;;;;;;8.13;2.67;;;13.70;99.90;;;;;;5054287;28;20357;-73
2023/07/31 05:15:29;;;;;;;6.95;2.80;;;13.90;99.90;;;;;;5054889;28;20025;-72
2023/07/31 05:17:54;;;;;;;5.20;2.60;;;14.00;99.90;;;;;;5054835;28;20033;-72
2023/07/31 05:20:21;;;;;;;5.38;2.58;;;14.20;99.90;;;;;;5054770;28;20048;-72
2023/07/31 05:22:46;;;;;;;8.90;2.83;;;14.20;99.90;;;;;;5054870;28;20025;-72
2023/07/31 05:25:12;;;;;;;6.28;2.90;;;14.40;99.90;;;;;;5054795;28;20032;-72
2023/07/31 05:27:38;;;;;;;8.98;2.97;;;14.50;99.90;;;;;;5054978;28;20025;-73
2023/07/31 05:30:05;;;;;;;14.10;3.30;;;14.50;99.90;;;;;;5054511;28;20417;-72
2023/07/31 05:32:30;;;;;;;10.38;3.00;;;14.50;99.90;;;;;;5054788;28;20075;-72
2023/07/31 05:34:56;;;;;;;6.93;2.55;;;14.50;99.90;;;;;;5054472;28;20021;-70
2023/07/31 05:37:22;;;;;;;6.90;2.75;;;14.60;99.90;;;;;;5054451;28;20092;-72
2023/07/31 05:39:48;;;;;;;5.68;2.83;;;14.60;99.90;;;;;;5054133;28;20029;-72
2023/07/31 05:42:13;;;;;;;8.45;2.67;;;14.70;99.90;;;;;;5054319;28;20060;-72
2023/07/31 05:44:39;;;;;;;6.30;2.85;;;14.80;99.90;;;;;;5054592;28;20078;-72
2023/07/31 05:47:05;;;;;;;6.15;2.55;;;14.80;99.90;;;;;;5054698;28;20067;-72
2023/07/31 05:49:30;;;;;;;8.32;2.72;;;14.90;99.90;;;;;;5054650;28;20057;-72
2023/07/31 05:51:56;;;;;;;4.13;2.22;;;15.00;99.90;;;;;;5054421;28;20024;-72
2023/07/31 05:54:22;;;;;;;9.10;2.42;;;15.10;99.90;;;;;;5052818;28;20032;-71
2023/07/31 05:56:47;;;;;;;11.25;3.00;;;15.10;99.90;;;;;;5054625;28;20020;-71
2023/07/31 05:59:13;;;;;;;8.45;2.58;;;15.00;99.90;;;;;;5054329;28;20040;-71
2023/07/31 06:01:39;;;;;;;6.90;2.67;;;15.00;99.90;;;;;;5054300;28;20032;-72
2023/07/31 06:04:05;;;;;;;10.57;2.67;;;15.10;99.90;;;;;;5054035;28;20438;-72
2023/07/31 06:06:31;;;;;;;8.30;2.78;;;15.20;99.90;;;;;;5054039;28;20021;-72
2023/07/31 06:08:56;;;;;;;6.78;2.65;;;15.20;99.90;;;;;;5052302;28;20419;-73
2023/07/31 06:11:23;;;;;;;10.38;2.88;;;15.30;99.90;;;;;;5054405;28;20052;-72
2023/07/31 06:13:49;;;;;;;4.57;2.55;;;15.30;99.90;;;;;;5053816;28;20029;-72
2023/07/31 06:16:16;;;;;;;7.88;2.80;;;15.30;99.90;;;;;;5053123;28;20380;-72
2023/07/31 06:18:42;;;;;;;6.47;2.80;;;15.40;99.90;;;;;;5054400;28;20433;-72
2023/07/31 06:21:10;;;;;;;5.30;2.60;;;15.40;99.90;;;;;;5054204;28;20021;-72
2023/07/31 06:23:36;;;;;;;7.03;2.53;;;15.50;99.90;;;;;;5053896;28;20103;-72
2023/07/31 06:26:02;;;;;;;7.63;3.00;;;15.50;99.90;;;;;;5053999;28;20492;-71
2023/07/31 06:28:31;;;;;;;6.38;2.47;;;15.60;99.90;;;;;;5052381;28;20085;-71
2023/07/31 06:30:58;;;;;;;6.50;2.58;;;15.70;99.90;;;;;;5053800;28;20021;-72
2023/07/31 06:33:24;;;;;;;6.25;2.50;;;15.80;99.90;;;;;;5053659;28;20025;-72
2023/07/31 06:35:50;;;;;;;8.73;2.70;;;15.80;99.90;;;;;;5053930;28;20032;-72
2023/07/31 06:38:18;;;;;;;5.10;2.50;;;16.00;99.90;;;;;;5053558;28;20442;-72
2023/07/31 06:40:43;;;;;;;11.07;2.85;;;16.10;99.90;;;;;;5053562;28;20032;-73
2023/07/31 06:43:09;;;;;;;8.98;2.90;;;16.10;99.90;;;;;;5053524;28;20024;-72
2023/07/31 06:45:36;;;;;;;7.90;2.92;;;16.00;99.90;;;;;;5053150;28;20017;-71
2023/07/31 06:48:02;;;;;;;5.15;2.35;;;15.80;99.90;;;;;;5053208;28;20084;-72
2023/07/31 06:50:31;;;;;;;5.20;2.22;;;15.80;99.90;;;;;;5053432;28;20021;-72
2023/07/31 06:52:57;;;;;;;6.28;2.47;;;16.00;99.90;;;;;;5053475;28;20078;-72
2023/07/31 06:55:24;;;;;;;7.43;2.67;;;16.20;99.90;;;;;;5052288;28;20052;-71
2023/07/31 06:57:50;;;;;;;8.23;2.80;;;16.40;99.90;;;;;;5053760;28;20029;-71
2023/07/31 07:00:17;;;;;;;9.65;2.40;;;16.50;99.90;;;;;;5053132;28;20449;-72
2023/07/31 07:02:43;;;;;;;6.18;2.28;;;16.60;99.90;;;;;;5053466;28;20021;-72
2023/07/31 07:05:09;;;;;;;10.00;2.60;;;16.70;99.90;;;;;;5053381;28;20074;-71
2023/07/31 07:07:35;;;;;;;5.05;2.72;;;16.80;99.90;;;;;;5051969;28;20056;-71
2023/07/31 07:10:01;;;;;;;7.50;2.50;;;16.60;99.90;;;;;;5053320;28;20111;-72
2023/07/31 07:12:30;;;;;;;9.60;2.80;;;16.60;99.90;;;;;;5054079;28;20064;-71
2023/07/31 07:14:57;;;;;;;7.75;2.65;;;16.50;99.90;;;;;;5053272;28;20032;-71
2023/07/31 07:17:23;;;;;;;7.68;2.83;;;16.40;99.90;;;;;;5053456;28;20021;-71
2023/07/31 07:19:49;;;;;;;6.28;2.33;;;16.50;99.90;;;;;;5053070;28;20021;-72
2023/07/31 07:22:14;;;;;;;5.45;2.30;;;16.60;99.90;;;;;;5052050;28;20426;-71
2023/07/31 07:24:40;;;;;;;5.93;2.20;;;16.80;99.90;;;;;;5053197;28;20021;-74
2023/07/31 07:27:06;;;;;;;10.07;2.45;;;16.80;99.90;;;;;;5053155;28;20017;-72
2023/07/31 07:29:33;;;;;;;7.78;2.67;;;16.80;99.90;;;;;;5053186;28;20029;-72
2023/07/31 07:31:59;;;;;;;9.15;2.63;;;16.70;99.90;;;;;;5053243;28;20112;-72
2023/07/31 07:34:26;;;;;;;7.55;2.30;;;16.80;99.90;;;;;;5053636;28;20453;-74
2023/07/31 07:36:52;;;;;;;3.58;2.17;;;16.80;99.90;;;;;;5055654;28;20016;-74
2023/07/31 07:39:17;;;;;;;6.75;2.20;;;16.80;99.90;;;;;;5057451;28;20032;-74
2023/07/31 07:41:43;;;;;;;6.63;2.40;;;16.80;99.90;;;;;;5057353;28;20358;-72
2023/07/31 07:44:09;;;;;;;6.07;2.30;;;16.80;99.90;;;;;;5057625;28;20433;-74
2023/07/31 07:46:34;;;;;;;11.38;2.92;;;16.80;99.90;;;;;;5056827;28;20021;-74
2023/07/31 07:49:00;;;;;;;4.55;2.22;;;16.80;99.90;;;;;;5056691;28;20136;-72
2023/07/31 07:51:26;;;;;;;5.50;2.10;;;17.10;99.90;;;;;;5056909;28;20404;-73
2023/07/31 07:53:52;;;;;;;6.88;2.20;;;17.30;99.90;;;;;;5056626;28;20445;-74
2023/07/31 07:56:17;;;;;;;5.72;2.28;;;17.60;99.90;;;;;;5056354;28;20021;-73
2023/07/31 07:58:43;;;;;;;10.07;2.65;;;17.80;99.90;;;;;;5056505;28;20021;-72
2023/07/31 08:01:08;;;;;;;7.60;2.40;;;17.80;99.90;;;;;;5056810;28;20020;-73
2023/07/31 08:03:34;;;;;;;5.70;2.38;;;17.80;99.90;;;;;;5056532;28;20108;-73
2023/07/31 08:06:01;;;;;;;8.02;3.03;;;18.00;99.90;;;;;;5056391;28;20074;-73
2023/07/31 08:08:27;;;;;;;5.95;2.28;;;18.00;99.90;;;;;;5056060;28;20116;-73
2023/07/31 08:10:53;;;;;;;12.85;2.38;;;18.00;99.90;;;;;;5056393;28;20092;-73
2023/07/31 08:13:19;;;;;;;8.40;2.80;;;18.00;99.90;;;;;;5056614;28;20155;-73
2023/07/31 08:15:44;;;;;;;5.88;2.28;;;18.10;99.90;;;;;;5055955;28;20472;-72
2023/07/31 08:18:11;;;;;;;8.63;2.92;;;18.20;99.90;;;;;;5054982;28;20052;-74
2023/07/31 08:20:37;;;;;;;8.90;2.50;;;18.40;99.90;;;;;;5056690;28;20021;-73
2023/07/31 08:23:03;;;;;;;10.45;2.53;;;18.60;99.90;;;;;;5056158;28;20025;-73
2023/07/31 08:25:29;;;;;;;5.78;2.78;;;18.80;99.90;;;;;;5054844;28;20024;-75
2023/07/31 08:27:55;;;;;;;5.22;2.40;;;18.90;99.90;;;;;;5056013;28;20033;-73
2023/07/31 08:30:21;;;;;;;7.20;2.88;;;18.90;99.90;;;;;;5056036;28;20342;-73
2023/07/31 08:32:47;;;;;;;9.57;2.78;;;18.90;99.90;;;;;;5055976;28;20024;-73
2023/07/31 08:35:13;;;;;;;7.25;2.63;;;19.20;99.90;;;;;;5055864;28;20100;-73
2023/07/31 08:37:38;;;;;;;8.10;2.70;;;19.50;99.90;;;;;;5054828;28;20028;-75
2023/07/31 08:40:05;;;;;;;11.98;2.53;;;19.40;99.90;;;;;;5056108;28;20021;-73
2023/07/31 08:42:31;;;;;;;7.90;2.47;;;19.40;99.90;;;;;;5055766;28;20168;-77
2023/07/31 08:44:59;;;;;;;12.38;2.90;;;19.30;99.90;;;;;;5054500;28;20473;-75
2023/07/31 08:47:26;;;;;;;5.50;2.55;;;19.30;99.90;;;;;;5055405;28;20092;-74
2023/07/31 08:49:52;;;;;;;5.38;2.58;;;19.40;99.90;;;;;;5055413;28;20021;-72
2023/07/31 08:52:18;;;;;;;7.22;2.85;;;19.30;99.90;;;;;;5055863;28;20055;-77
2023/07/31 08:54:44;;;;;;;8.57;2.80;;;19.10;99.90;;;;;;5055538;28;20108;-73
2023/07/31 08:57:12;;;;;;;5.80;2.70;;;19.20;99.90;;;;;;5055982;28;20060;-74
2023/07/31 08:59:38;;;;;;;8.25;2.60;;;19.40;99.90;;;;;;5055430;28;20029;-72
2023/07/31 09:02:08;;;;;;;12.20;2.53;;;19.70;99.90;;;;;;5055436;28;20025;-71
2023/07/31 09:04:34;;;;;;;10.80;3.10;;;19.90;99.90;;;;;;5055541;28;20353;-71
2023/07/31 09:07:04;;;;;;;7.25;2.50;;;19.80;99.90;;;;;;5055305;28;20021;-74
2023/07/31 09:09:31;;;;;;;6.07;2.50;;;19.90;99.90;;;;;;5054436;28;20044;-72
2023/07/31 09:11:58;;;;;;;12.43;3.05;;;20.00;99.90;;;;;;5055513;28;20017;-76
2023/07/31 09:14:25;;;;;;;7.28;2.80;;;20.10;99.90;;;;;;5055097;28;20035;-74
2023/07/31 09:16:56;;;;;;;5.80;2.30;;;20.20;99.90;;;;;;5055100;28;20108;-78
2023/07/31 09:19:37;;;;;;;6.95;2.72;;;20.30;99.90;;;;;;5053420;28;20393;-75
2023/07/31 09:22:03;;;;;;;6.95;2.75;;;20.20;99.90;;;;;;5055202;28;20029;-74
2023/07/31 09:24:31;;;;;;;9.60;2.78;;;20.10;99.90;;;;;;5055210;28;20017;-76
2023/07/31 09:26:58;;;;;;;7.22;2.80;;;20.10;99.90;;;;;;5054900;28;20075;-73
2023/07/31 09:29:26;;;;;;;5.43;2.35;;;20.30;99.90;;;;;;5054735;28;20033;-77
2023/07/31 09:31:52;;;;;;;10.93;3.15;;;20.70;99.90;;;;;;5054057;28;20025;-77
2023/07/31 09:34:18;;;;;;;11.85;3.13;;;20.70;99.90;;;;;;5055063;28;20078;-77
2023/07/31 09:36:46;;;;;;;6.22;3.25;;;20.80;99.90;;;;;;5053430;28;20445;-77
2023/07/31 09:39:12;;;;;;;8.13;2.58;;;20.80;99.90;;;;;;5054338;28;20346;-77
2023/07/31 09:41:40;;;;;;;9.15;2.75;;;20.80;99.90;;;;;;5053383;28;20021;-75
2023/07/31 09:44:06;;;;;;;8.68;3.08;;;20.90;99.90;;;;;;5054611;28;20028;-74
2023/07/31 09:46:31;;;;;;;10.77;2.45;;;20.90;99.90;;;;;;5054471;28;20021;-77
2023/07/31 09:49:25;;;;;;;9.55;2.75;;;20.70;99.90;;;;;;5054114;28;20060;-76
2023/07/31 09:51:50;;;;;;;14.68;2.97;;;20.70;99.90;;;;;;5053663;28;20482;-78
2023/07/31 09:54:16;;;;;;;7.95;2.22;;;20.60;99.90;;;;;;5054915;28;20017;-75
2023/07/31 09:56:49;;;;;;;10.05;2.60;;;20.80;99.90;;;;;;5054607;28;20055;-72
2023/07/31 09:59:17;;;;;;;11.70;2.95;;;20.70;99.90;;;;;;5054083;28;20025;-73
2023/07/31 10:01:44;;;;;;;12.27;2.70;;;20.60;99.90;;;;;;5054481;28;20028;-72
2023/07/31 10:04:11;;;;;;;9.30;2.95;;;20.40;99.90;;;;;;5054227;28;20180;-74
2023/07/31 10:06:38;;;;;;;10.38;2.88;;;20.20;99.90;;;;;;5053535;28;20389;-73
2023/07/31 10:09:15;;;;;;;8.25;2.50;;;20.20;99.90;;;;;;5054103;28;20100;-71
2023/07/31 10:11:51;;;;;;;9.02;2.28;;;20.50;99.90;;;;;;5054945;28;20021;-74
2023/07/31 10:14:20;;;;;;;13.65;2.25;;;20.50;99.90;;;;;;5054364;28;20021;-73
2023/07/31 10:16:46;;;;;;;6.63;2.60;;;20.50;99.90;;;;;;5053998;28;20021;-75
2023/07/31 10:19:12;;;;;;;6.85;2.38;;;20.80;99.90;;;;;;5053591;28;20074;-72
2023/07/31 10:21:37;;;;;;;6.03;2.67;;;21.10;99.90;;;;;;5053659;28;20017;-73
2023/07/31 10:24:06;;;;;;;7.65;2.60;;;21.50;99.90;;;;;;5054121;28;20021;-72
2023/07/31 10:26:35;;;;;;;6.85;2.65;;;21.40;99.90;;;;;;5054498;28;20036;-78
2023/07/31 10:29:01;;;;;;;6.05;2.53;;;21.20;99.90;;;;;;5054026;28;20338;-78
2023/07/31 10:31:28;;;;;;;7.18;2.38;;;20.80;99.90;;;;;;5052501;28;20032;-74
2023/07/31 10:33:56;;;;;;;10.13;3.00;;;20.80;99.90;;;;;;5053908;28;20052;-76
2023/07/31 10:36:22;;;;;;;10.77;3.00;;;20.70;99.90;;;;;;5053713;28;20105;-74
2023/07/31 10:38:51;;;;;;;9.40;2.45;;;20.80;99.90;;;;;;5052909;28;20132;-81
2023/07/31 10:41:17;;;;;;;14.38;2.50;;;20.80;99.90;;;;;;5053697;28;20057;-79
2023/07/31 10:43:42;;;;;;;6.45;2.20;;;21.20;99.90;;;;;;5053602;28;20028;-78
2023/07/31 10:46:13;;;;;;;6.25;2.40;;;21.60;99.90;;;;;;5054059;28;20021;-78
2023/07/31 10:48:41;;;;;;;8.93;2.80;;;21.70;99.90;;;;;;5053352;28;20462;-79
2023/07/31 10:51:11;;;;;;;9.73;2.65;;;21.70;99.90;;;;;;5053455;28;20021;-76
2023/07/31 10:53:38;;;;;;;11.93;2.72;;;21.60;99.90;;;;;;5053792;28;20075;-75
2023/07/31 10:56:15;;;;;;;9.85;2.75;;;21.50;99.90;;;;;;5053198;28;20458;-76
2023/07/31 10:58:44;;;;;;;6.43;2.53;;;21.70;99.90;;;;;;5053554;28;20032;-77
2023/07/31 11:01:09;;;;;;;5.40;2.50;;;21.60;99.90;;;;;;5053774;28;20025;-77
2023/07/31 11:03:47;;;;;;;5.13;2.20;;;21.50;99.90;;;;;;5053191;28;20028;-77
2023/07/31 11:06:14;;;;;;;6.95;2.63;;;21.30;99.90;;;;;;5052711;28;20033;-76
2023/07/31 11:08:47;;;;;;;9.10;2.72;;;21.40;99.90;;;;;;5053042;28;20601;-72
2023/07/31 11:11:15;;;;;;;7.07;2.47;;;21.30;99.90;;;;;;5057218;28;20029;-74
2023/07/31 11:13:51;;;;;;;10.70;2.40;;;21.50;99.90;;;;;;5058014;28;20023;-72
2023/07/31 11:16:19;;;;;;;11.32;2.58;;;21.40;99.90;;;;;;5057427;28;20024;-71
2023/07/31 11:18:47;;;;;;;10.65;2.50;;;21.60;99.90;;;;;;5057000;28;20102;-71
2023/07/31 11:21:17;;;;;;;5.47;2.70;;;21.90;99.90;;;;;;5057584;28;20032;-72
2023/07/31 11:24:01;;;;;;;;;;;21.90;99.90;;;;;;5058086;28;20108;-73
2023/07/31 11:26:27;;;;;;;10.02;2.63;;;21.60;99.90;;;;;;5057562;28;20256;-72
2023/07/31 11:28:53;;;;;;;7.10;2.72;;;21.30;99.90;;;;;;5057383;28;20021;-72
2023/07/31 11:31:19;;;;;;;14.73;2.58;;;21.40;99.90;;;;;;5057141;28;20021;-73
2023/07/31 11:33:45;;;;;;;7.22;2.83;;;21.40;99.90;;;;;;5057482;28;20025;-71
2023/07/31 11:36:18;;;;;;;5.80;2.50;;;21.30;99.90;;;;;;5057277;28;20108;-71
2023/07/31 11:38:44;;;;;;;5.70;2.50;;;21.30;99.90;;;;;;5056993;28;20020;-71
2023/07/31 11:41:09;;;;;;;12.23;3.20;;;21.30;99.90;;;;;;5057209;28;20021;-71
2023/07/31 11:43:36;;;;;;;7.15;2.60;;;21.20;99.90;;;;;;5057178;28;20044;-70
2023/07/31 11:46:02;;;;;;;11.38;2.90;;;21.10;99.90;;;;;;5057631;28;20017;-70
2023/07/31 11:48:30;;;;;;;7.15;2.80;;;21.10;99.90;;;;;;5056173;28;20037;-71
2023/07/31 11:51:04;;;;;;;7.85;2.92;;;21.10;99.90;;;;;;5056291;28;20032;-70
2023/07/31 11:53:44;;;;;;;5.45;2.60;;;21.20;99.90;;;;;;5056892;28;20025;-71
2023/07/31 11:56:13;;;;;;;8.75;2.90;;;21.50;99.90;;;;;;5056955;28;20067;-71
2023/07/31 11:58:40;;;;;;;6.78;2.90;;;21.70;99.90;;;;;;5056478;28;20111;-72
2023/07/31 12:01:06;;;;;;;9.30;3.33;;;21.70;99.90;;;;;;5056506;28;20334;-71
2023/07/31 12:03:33;;;;;;;6.75;2.60;;;21.60;99.90;;;;;;5056500;28;20074;-70
2023/07/31 12:05:59;;;;;;;11.30;3.00;;;21.60;99.90;;;;;;5056125;28;20488;-72
2023/07/31 12:08:25;;;;;;;8.68;2.90;;;21.60;99.90;;;;;;5056590;28;20466;-72
2023/07/31 12:10:52;;;;;;;7.80;2.72;;;21.80;99.90;;;;;;5056364;28;20079;-74
2023/07/31 12:13:28;;;;;;;8.02;2.60;;;21.90;99.90;;;;;;5056792;28;20071;-71
2023/07/31 12:15:59;;;;;;;7.97;2.97;;;22.00;99.90;;;;;;5056518;28;20021;-72
2023/07/31 12:18:27;;;;;;;10.63;3.25;;;21.80;99.90;;;;;;5056037;28;20033;-71
2023/07/31 12:21:01;;;;;;;9.45;3.53;;;22.30;99.90;;;;;;5056242;28;20384;-71
2023/07/31 12:23:31;;;;;;;8.00;2.95;;;22.70;99.90;;;;;;5055865;28;20025;-77
2023/07/31 12:26:13;;;;;;;;;;;23.00;99.90;;;;;;5056621;28;20071;-74
2023/07/31 12:28:49;;;;;;;9.27;3.10;;;22.70;99.90;;;;;;5056260;28;20006;-72
2023/07/31 12:31:19;;;;;;;7.47;3.15;;;22.30;99.90;;;;;;5056053;28;20392;-72
2023/07/31 12:33:46;;;;;;;7.03;3.15;;;22.00;99.90;;;;;;5055970;28;20028;-72
2023/07/31 12:36:17;;;;;;;6.50;3.03;;;21.90;99.90;;;;;;5055923;28;20056;-71
2023/07/31 12:38:43;;;;;;;9.98;2.67;;;21.90;99.90;;;;;;5054589;28;20031;-71
2023/07/31 12:41:09;;;;;;;10.98;3.17;;;21.80;99.90;;;;;;5055869;28;20083;-72
2023/07/31 12:43:37;;;;;;;9.45;3.00;;;21.80;99.90;;;;;;5055716;28;20442;-72
2023/07/31 12:46:04;;;;;;;9.02;3.30;;;21.80;99.90;;;;;;5056167;28;20390;-71